Vinita, OK (74301)

8:08 PM CST on February 13, 2016 (GMT -0600)
W5GFI | | Change Station
CLOSE
Current Station
Personal Weather Station
Location: Vinita, OK
Elevation: 725 ft
Nearby Weather Stations

Elev 725 ft 36.65 °N, 95.16 °W | Updated 2 minutes ago

Partly Cloudy
Partly Cloudy
42.1 °F
Feels Like 42 °F
N
2.0
Wind Variable Wind from SE
Gusts 4.0 mph

Today
High -- | Low -- °F
--% Chance of Precip.
Yesterday
High -- | Low -- °F
Precip. -- in
Pressure 30.18 in
Visibility 4.0 miles
Clouds Scattered Clouds 6000 ft
Windchill 42 °F
Dew Point 21 °F
Humidity 42%
Rainfall 0.00 in
Snow Depth Not available.
7:11 AM 5:58 PM
Waxing Crescent, 36% visible
METAR KGMJ 140155Z AUTO 14007KT 4SM HZ SCT060 05/M07 A3018 RMK AO2
Pressure 30.18 in
Visibility 4.0 miles
Clouds Scattered Clouds 6000 ft
Windchill 42 °F
Dew Point 21 °F
Humidity 42%
Rainfall 0.00 in
Snow Depth Not available.
7:11 AM 5:58 PM
Waxing Crescent, 36% visible
METAR KGMJ 140155Z AUTO 14007KT 4SM HZ SCT060 05/M07 A3018 RMK AO2

10-Day Weather Forecast

Almanac

Astronomy

Feb. 13, 2016 Rise Set
Actual Time
Civil Twilight
Nautical Twilight
Astronomical Twilight
Moon
Length of Visible Light
Length of Day
Tomorrow will be .
, % of the Moon is Illuminated

Today's Extremes

State Highs State Lows

Community

WunderPhotos

Upload Photos

1,892,725 photos uploaded!

WunderBlog® & News

Nearby

Air Quality

  Air Quality AQ Index Pollutant
Not available.

Snow Depth

Station Depth Elevation

Earthquake Activity

City Distance Mag. Time & Date
Minimum magnitude displayed is 2.5.

Coastal Water Temperatures

Place Temperature

Stations

Nearby Weather Stations

Station Location Temp. Windchill Dew Point Humidity Wind Precip. Elev Updated Type
                   

Watches & Warnings

There are currently no watches in effect.